createdAt,value
2022-12-28T00:01:48.721Z,101143.59
2022-12-28T00:04:15.564Z,101136.94
2022-12-28T00:06:42.187Z,101136.13
2022-12-28T00:09:11.229Z,101125.81
2022-12-28T00:11:38.010Z,101109.16
2022-12-28T00:14:04.583Z,101118.28
2022-12-28T00:16:32.295Z,101103.88
2022-12-28T00:19:00.628Z,101102.78
2022-12-28T00:21:27.668Z,101105.22
2022-12-28T00:23:58.145Z,101103.59
2022-12-28T00:26:29.680Z,101102.09
2022-12-28T00:29:03.737Z,101079.06
2022-12-28T00:31:32.075Z,101083.16
2022-12-28T00:33:59.280Z,101083.16
2022-12-28T00:37:08.623Z,101079.22
2022-12-28T00:39:12.085Z,101082.47
2022-12-28T00:41:40.010Z,101077.72
2022-12-28T00:44:06.425Z,101069.91
2022-12-28T00:46:32.952Z,101075.94
2022-12-28T00:48:59.478Z,101064.50
2022-12-28T00:51:25.881Z,101065.47
2022-12-28T00:53:53.652Z,101072.00
2022-12-28T00:56:22.094Z,101051.38
2022-12-28T00:58:49.083Z,101061.53
2022-12-28T01:01:25.739Z,101065.97
2022-12-28T01:03:52.542Z,101054.66
2022-12-28T01:06:20.473Z,101052.00
2022-12-28T01:08:47.217Z,101052.19
2022-12-28T01:11:24.635Z,101061.31
2022-12-28T01:13:52.701Z,101059.88
2022-12-28T01:16:22.437Z,101059.53
2022-12-28T01:18:51.905Z,101050.03
2022-12-28T01:21:21.725Z,101050.53
2022-12-28T01:23:49.113Z,101041.38
2022-12-28T01:26:16.218Z,101030.25
2022-12-28T01:28:44.239Z,101031.38
2022-12-28T01:31:16.307Z,101023.72
2022-12-28T01:33:43.511Z,101007.03
2022-12-28T01:36:17.016Z,100993.44
2022-12-28T01:38:44.558Z,101002.63
2022-12-28T01:41:14.046Z,101002.13
2022-12-28T01:43:54.304Z,100996.09
2022-12-28T01:46:22.859Z,100989.38
2022-12-28T01:48:52.160Z,100985.78
2022-12-28T01:51:20.742Z,100983.47
2022-12-28T01:53:49.659Z,100976.28
2022-12-28T01:56:16.153Z,100977.44
2022-12-28T01:58:42.978Z,100972.19
2022-12-28T02:01:09.895Z,100959.81
2022-12-28T02:03:36.993Z,100974.03
2022-12-28T02:06:07.917Z,100960.47
2022-12-28T02:08:43.439Z,100963.22
2022-12-28T02:11:13.822Z,100948.22
2022-12-28T02:13:47.391Z,100942.66
2022-12-28T02:16:14.020Z,100949.84
2022-12-28T02:18:43.830Z,100945.44
2022-12-28T02:21:17.672Z,100936.25
2022-12-28T02:23:54.046Z,100941.81
2022-12-28T02:26:38.904Z,100921.53
2022-12-28T02:29:48.553Z,100921.22
2022-12-28T02:32:29.171Z,100926.09
2022-12-28T02:35:17.167Z,100906.97
2022-12-28T02:38:00.289Z,100888.00
2022-12-28T02:40:32.424Z,100881.78
2022-12-28T02:43:02.154Z,100867.53
2022-12-28T02:45:55.153Z,100860.84
2022-12-28T02:48:41.095Z,100831.19
2022-12-28T02:51:10.150Z,100824.16
2022-12-28T02:54:01.754Z,100838.72
2022-12-28T02:56:42.949Z,100838.06
2022-12-28T02:59:15.654Z,100824.31
2022-12-28T03:01:54.053Z,100823.94
2022-12-28T03:04:35.441Z,100821.31
2022-12-28T03:07:29.178Z,100809.19
2022-12-28T03:10:12.331Z,100814.41
2022-12-28T03:12:58.727Z,100808.84
2022-12-28T03:15:30.386Z,100808.16
2022-12-28T03:18:34.605Z,100810.59
2022-12-28T03:21:28.981Z,100813.53
2022-12-28T03:24:14.930Z,100811.19
2022-12-28T03:27:11.839Z,100798.09
2022-12-28T03:30:06.535Z,100806.59
2022-12-28T03:32:33.140Z,100780.19
2022-12-28T03:34:59.800Z,100785.41
2022-12-28T03:37:38.074Z,100776.25
2022-12-28T03:40:13.357Z,100762.47
2022-12-28T03:43:04.984Z,100761.81
2022-12-28T03:46:05.230Z,100753.91
2022-12-28T03:48:37.620Z,100757.28
2022-12-28T03:51:04.450Z,100745.03
2022-12-28T03:53:40.010Z,100756.97
2022-12-28T03:56:24.119Z,100747.47
2022-12-28T03:58:50.990Z,100743.28
2022-12-28T04:01:17.481Z,100728.22
2022-12-28T04:03:44.110Z,100728.69
2022-12-28T04:06:18.157Z,100737.84
2022-12-28T04:08:45.431Z,100724.88
2022-12-28T04:11:12.767Z,100718.59
2022-12-28T04:13:39.260Z,100713.84
2022-12-28T04:16:09.447Z,100713.53
2022-12-28T04:18:35.888Z,100716.75
2022-12-28T04:21:02.436Z,100711.19
2022-12-28T04:23:30.244Z,100704.47
2022-12-28T04:26:02.204Z,100698.09
2022-12-28T04:28:29.894Z,100708.53
2022-12-28T04:30:57.963Z,100700.19
2022-12-28T04:33:25.341Z,100702.97
2022-12-28T04:35:52.729Z,100703.44
2022-12-28T04:38:20.245Z,100691.47
2022-12-28T04:40:48.334Z,100689.19
2022-12-28T04:43:16.939Z,100680.84
2022-12-28T04:45:44.225Z,100669.38
2022-12-28T04:48:10.597Z,100678.66
2022-12-28T04:50:37.430Z,100666.34
2022-12-28T04:53:03.804Z,100669.94
2022-12-28T04:55:32.452Z,100669.59
2022-12-28T04:58:00.603Z,100656.50
2022-12-28T05:00:27.185Z,100651.41
2022-12-28T05:02:53.659Z,100658.13
2022-12-28T05:05:20.044Z,100635.13
2022-12-28T05:07:46.469Z,100652.31
2022-12-28T05:10:12.996Z,100646.41
2022-12-28T05:12:39.648Z,100653.25
2022-12-28T05:15:06.831Z,100662.06
2022-12-28T05:17:33.297Z,100663.00
2022-12-28T05:19:59.934Z,100648.38
2022-12-28T05:22:26.332Z,100652.06
2022-12-28T05:24:52.831Z,100644.19
2022-12-28T05:27:19.205Z,100651.84
2022-12-28T05:29:45.568Z,100648.72
2022-12-28T05:32:11.942Z,100658.69
2022-12-28T05:34:39.859Z,100649.16
2022-12-28T05:37:06.562Z,100653.25
2022-12-28T05:39:32.990Z,100653.25
2022-12-28T05:42:00.902Z,100654.41
2022-12-28T05:44:29.111Z,100648.84
2022-12-28T05:46:55.747Z,100651.13
2022-12-28T05:49:22.491Z,100643.03
2022-12-28T05:51:52.026Z,100644.19
2022-12-28T05:54:20.339Z,100640.94
2022-12-28T05:56:50.813Z,100637.69
2022-12-28T05:59:17.329Z,100629.34
2022-12-28T06:01:44.400Z,100625.38
2022-12-28T06:04:16.928Z,100629.34
2022-12-28T06:06:44.779Z,100627.34
2022-12-28T06:09:12.077Z,100627.84
2022-12-28T06:11:38.409Z,100610.28
2022-12-28T06:14:07.148Z,100618.31
2022-12-28T06:16:38.782Z,100621.78
2022-12-28T06:19:08.024Z,100627.34
2022-12-28T06:21:36.774Z,100626.56
2022-12-28T06:24:04.979Z,100617.38
2022-12-28T06:26:33.873Z,100618.88
2022-12-28T06:29:02.190Z,100624.81
2022-12-28T06:31:36.465Z,100616.34
2022-12-28T06:34:04.736Z,100622.72
2022-12-28T06:36:39.422Z,100624.25
2022-12-28T06:39:08.073Z,100628.19
2022-12-28T06:41:35.678Z,100618.19
2022-12-28T06:44:05.163Z,100618.56
2022-12-28T06:46:31.770Z,100613.34
2022-12-28T06:48:58.593Z,100615.78
2022-12-28T06:51:31.587Z,100610.56
2022-12-28T06:53:57.948Z,100617.75
2022-12-28T06:56:29.260Z,100619.72
2022-12-28T06:59:02.357Z,100617.75
2022-12-28T07:01:38.594Z,100618.09
2022-12-28T07:04:07.207Z,100611.72
2022-12-28T07:06:39.742Z,100622.06
2022-12-28T07:09:09.733Z,100612.53
2022-12-28T07:11:36.368Z,100612.53
2022-12-28T07:14:05.427Z,100611.72
2022-12-28T07:18:59.007Z,100618.09
2022-12-28T07:21:29.753Z,100605.69
2022-12-28T07:23:57.800Z,100604.50
2022-12-28T07:26:27.566Z,100603.69
2022-12-28T07:28:55.781Z,100605.69
2022-12-28T07:31:25.544Z,100599.31
2022-12-28T07:33:57.095Z,100596.50
2022-12-28T07:36:25.286Z,100596.16
2022-12-28T07:38:51.772Z,100614.50
2022-12-28T07:41:20.810Z,100609.28
2022-12-28T07:43:47.955Z,100605.69
2022-12-28T07:46:19.191Z,100603.69
2022-12-28T07:48:46.098Z,100606.47
2022-12-28T07:51:22.461Z,100604.88
2022-12-28T07:53:50.732Z,100596.16
2022-12-28T07:56:18.223Z,100600.59
2022-12-28T07:58:52.930Z,100603.69
2022-12-28T08:01:21.619Z,100601.41
2022-12-28T08:03:48.175Z,100599.41
2022-12-28T08:06:19.993Z,100601.03
2022-12-28T08:08:50.040Z,100600.22
2022-12-28T08:11:19.261Z,100601.47
2022-12-28T08:13:47.562Z,100597.56
2022-12-28T08:16:15.758Z,100588.03
2022-12-28T08:18:42.598Z,100599.63
2022-12-28T08:21:13.661Z,100595.22
2022-12-28T08:23:40.653Z,100596.50
2022-12-28T08:26:10.099Z,100603.69
2022-12-28T08:28:38.103Z,100601.38
2022-12-28T08:31:11.588Z,100596.59
2022-12-28T08:33:38.291Z,100597.88
2022-12-28T08:36:06.027Z,100604.28
2022-12-28T08:38:33.755Z,100593.94
2022-12-28T08:41:02.270Z,100599.16
2022-12-28T08:43:28.991Z,100607.25
2022-12-28T08:46:05.981Z,100597.41
2022-12-28T08:48:34.130Z,100598.69
2022-12-28T08:51:03.332Z,100597.84
2022-12-28T08:53:30.020Z,100590.34
2022-12-28T08:55:59.006Z,100596.34
2022-12-28T08:58:29.359Z,100601.94
2022-12-28T09:00:55.867Z,100591.22
2022-12-28T09:03:22.248Z,100595.31
2022-12-28T09:05:54.282Z,100592.50
2022-12-28T09:08:21.209Z,100605.75
2022-12-28T09:10:47.529Z,100597.47
2022-12-28T09:13:13.941Z,100601.88
2022-12-28T09:15:40.322Z,100598.41
2022-12-28T09:18:07.486Z,100602.09
2022-12-28T09:20:39.875Z,100603.72
2022-12-28T09:23:09.545Z,100602.66
2022-12-28T09:25:36.087Z,100603.94
2022-12-28T09:28:02.787Z,100600.81
2022-12-28T09:30:29.224Z,100604.03
2022-12-28T09:33:15.581Z,100605.31
2022-12-28T09:35:42.091Z,100609.34
2022-12-28T09:38:08.517Z,100607.84
2022-12-28T09:40:36.281Z,100606.31
2022-12-28T09:43:03.212Z,100618.75
2022-12-28T09:45:31.289Z,100608.03
2022-12-28T09:48:03.920Z,100609.31
2022-12-28T09:50:31.747Z,100605.84
2022-12-28T09:53:16.801Z,100607.91
2022-12-28T09:55:51.214Z,100608.72
2022-12-28T09:58:17.685Z,100602.78
2022-12-28T10:00:51.525Z,100598.84
2022-12-28T10:03:31.947Z,100599.63
2022-12-28T10:05:59.547Z,100604.16
2022-12-28T10:08:27.982Z,100597.88
2022-12-28T10:10:58.852Z,100594.34
2022-12-28T10:13:53.539Z,100590.06
2022-12-28T10:16:20.527Z,100583.41
2022-12-28T10:18:48.272Z,100585.13
2022-12-28T10:21:18.485Z,100581.31
2022-12-28T10:24:29.081Z,100584.97
2022-12-28T10:26:35.632Z,100574.38
2022-12-28T10:29:02.279Z,100572.03
2022-12-28T10:31:40.217Z,100563.66
2022-12-28T10:34:24.726Z,100560.16
2022-12-28T10:36:54.258Z,100561.88
2022-12-28T10:39:27.573Z,100565.81
2022-12-28T10:41:56.300Z,100561.13
2022-12-28T10:44:39.326Z,100551.59
2022-12-28T10:47:35.150Z,100547.28
2022-12-28T10:50:36.200Z,100549.38
2022-12-28T10:52:58.139Z,100546.19
2022-12-28T10:55:33.205Z,100545.03
2022-12-28T10:58:33.685Z,100545.84
2022-12-28T11:01:15.846Z,100530.41
2022-12-28T11:03:56.452Z,100521.72
2022-12-28T11:06:27.421Z,100521.06
2022-12-28T11:09:12.646Z,100512.78
2022-12-28T11:11:39.547Z,100514.47
2022-12-28T11:14:15.441Z,100496.91
2022-12-28T11:16:43.045Z,100502.56
2022-12-28T11:19:11.454Z,100493.84
2022-12-28T11:21:38.194Z,100494.75
2022-12-28T11:24:05.164Z,100491.13
2022-12-28T11:26:32.857Z,100496.78
2022-12-28T11:29:01.825Z,100491.19
2022-12-28T11:31:34.097Z,100490.03
2022-12-28T11:34:06.447Z,100490.91
2022-12-28T11:36:39.605Z,100483.34
2022-12-28T11:39:31.995Z,100472.63
2022-12-28T11:44:49.721Z,100475.56
2022-12-28T11:47:16.030Z,100464.47
2022-12-28T11:49:47.227Z,100477.72
2022-12-28T11:52:16.561Z,100469.78
2022-12-28T11:54:59.727Z,100473.38
2022-12-28T11:57:37.793Z,100465.06
2022-12-28T12:00:22.687Z,100469.94
2022-12-28T12:02:52.706Z,100463.59
2022-12-28T12:05:37.531Z,100464.84
2022-12-28T12:08:09.942Z,100465.28
2022-12-28T12:10:38.871Z,100449.78
2022-12-28T12:13:27.083Z,100451.41
2022-12-28T12:16:00.928Z,100456.25
2022-12-28T12:18:29.891Z,100448.75
2022-12-28T12:21:03.122Z,100458.41
2022-12-28T12:23:41.470Z,100446.94
2022-12-28T12:26:21.174Z,100450.16
2022-12-28T12:28:51.399Z,100440.66
2022-12-28T12:31:33.431Z,100445.09
2022-12-28T12:34:07.152Z,100439.19
2022-12-28T12:36:59.472Z,100432.34
2022-12-28T12:40:04.880Z,100434.03
2022-12-28T12:42:34.111Z,100448.00
2022-12-28T12:45:28.100Z,100443.16
2022-12-28T12:48:05.084Z,100428.44
2022-12-28T12:51:08.778Z,100425.16
2022-12-28T12:53:43.150Z,100421.25
2022-12-28T12:56:23.273Z,100424.41
2022-12-28T12:59:11.798Z,100408.44
2022-12-28T13:01:58.142Z,100414.47
2022-12-28T13:04:29.169Z,100408.13
2022-12-28T13:07:02.084Z,100419.31
2022-12-28T13:09:30.465Z,100414.53
2022-12-28T13:11:58.440Z,100414.53
2022-12-28T13:14:25.077Z,100410.13
2022-12-28T13:16:54.988Z,100406.88
2022-12-28T13:19:25.363Z,100409.28
2022-12-28T13:21:52.386Z,100408.50
2022-12-28T13:24:23.558Z,100413.28
2022-12-28T13:26:51.209Z,100413.66
2022-12-28T13:29:24.128Z,100415.19
2022-12-28T13:31:51.804Z,100418.44
2022-12-28T13:34:29.317Z,100417.97
2022-12-28T13:36:58.379Z,100407.19
2022-12-28T13:39:30.133Z,100413.50
2022-12-28T13:42:06.213Z,100399.84
2022-12-28T13:44:43.834Z,100399.84
2022-12-28T13:47:36.877Z,100390.22
2022-12-28T13:50:14.642Z,100392.22
2022-12-28T13:52:59.094Z,100376.56
2022-12-28T13:55:40.001Z,100367.72
2022-12-28T13:58:14.403Z,100365.28
2022-12-28T14:00:45.755Z,100365.66
2022-12-28T14:03:13.714Z,100371.25
2022-12-28T14:05:49.675Z,100357.19
2022-12-28T14:08:17.643Z,100344.03
2022-12-28T14:10:50.325Z,100350.78
2022-12-28T14:13:18.365Z,100354.41
2022-12-28T14:15:45.920Z,100350.00
2022-12-28T14:18:19.218Z,100331.97
2022-12-28T14:20:49.283Z,100333.16
2022-12-28T14:23:39.123Z,100317.97
2022-12-28T14:26:09.508Z,100320.00
2022-12-28T14:28:48.382Z,100320.75
2022-12-28T14:31:21.492Z,100310.38
2022-12-28T14:34:07.377Z,100311.91
2022-12-28T14:36:41.533Z,100323.53
2022-12-28T14:39:22.382Z,100313.91
2022-12-28T14:41:48.867Z,100310.72
2022-12-28T14:44:24.389Z,100309.50
2022-12-28T14:46:54.580Z,100302.31
2022-12-28T14:49:23.981Z,100299.06
2022-12-28T14:51:50.775Z,100291.44
2022-12-28T14:54:22.957Z,100290.56
2022-12-28T14:56:59.564Z,100277.75
2022-12-28T14:59:33.600Z,100276.13
2022-12-28T15:02:00.232Z,100266.56
2022-12-28T15:04:40.162Z,100268.50
2022-12-28T15:07:08.936Z,100273.34
2022-12-28T15:09:35.694Z,100268.94
2022-12-28T15:12:13.791Z,100263.72
2022-12-28T15:14:41.899Z,100264.97
2022-12-28T15:17:10.397Z,100254.59
2022-12-28T15:19:39.623Z,100268.56
2022-12-28T15:22:06.142Z,100254.59
2022-12-28T15:24:35.288Z,100253.78
2022-12-28T15:27:05.588Z,100254.97
2022-12-28T15:32:18.780Z,100235.41
2022-12-28T15:34:45.331Z,100232.63
2022-12-28T15:37:13.456Z,100227.41
2022-12-28T15:39:39.784Z,100220.22
2022-12-28T15:42:06.231Z,100210.59
2022-12-28T15:44:32.834Z,100214.13
2022-12-28T15:46:59.304Z,100201.34
2022-12-28T15:49:26.633Z,100203.72
2022-12-28T15:51:54.256Z,100200.47
2022-12-28T15:54:20.848Z,100197.31
2022-12-28T15:56:53.028Z,100196.88
2022-12-28T15:59:19.464Z,100192.53
2022-12-28T16:01:47.259Z,100182.16
2022-12-28T16:04:18.944Z,100185.78
2022-12-28T16:06:45.562Z,100183.78
2022-12-28T16:09:13.545Z,100180.59
2022-12-28T16:11:40.805Z,100174.66
2022-12-28T16:14:08.884Z,100169.44
2022-12-28T16:16:38.341Z,100171.88
2022-12-28T16:19:05.823Z,100157.91
2022-12-28T16:21:32.978Z,100159.13
2022-12-28T16:24:00.563Z,100156.34
2022-12-28T16:26:28.500Z,100159.13
2022-12-28T16:28:57.733Z,100146.78
2022-12-28T16:31:31.951Z,100135.19
2022-12-28T16:34:11.203Z,100137.59
2022-12-28T16:36:38.660Z,100131.22
2022-12-28T16:39:07.463Z,100123.22
2022-12-28T16:41:37.221Z,100117.63
2022-12-28T16:44:06.614Z,100109.63
2022-12-28T16:46:34.019Z,100100.41
2022-12-28T16:49:02.011Z,100098.47
2022-12-28T16:51:30.757Z,100106.00
2022-12-28T16:53:57.309Z,100104.03
2022-12-28T16:56:23.862Z,100098.47
2022-12-28T16:58:56.366Z,100090.09
2022-12-28T17:01:23.973Z,100085.72
2022-12-28T17:03:50.726Z,100071.38
2022-12-28T17:06:17.416Z,100071.00
2022-12-28T17:08:44.185Z,100063.81
2022-12-28T17:11:11.644Z,100071.81
2022-12-28T17:13:39.285Z,100065.44
2022-12-28T17:16:06.851Z,100053.13
2022-12-28T17:18:33.265Z,100060.72
2022-12-28T17:21:04.877Z,100043.63
2022-12-28T17:23:33.229Z,100045.63
2022-12-28T17:25:59.570Z,100040.50
2022-12-28T17:28:26.568Z,100031.72
2022-12-28T17:31:10.156Z,100024.88
2022-12-28T17:33:39.815Z,100027.38
2022-12-28T17:36:07.098Z,100023.41
2022-12-28T17:38:34.051Z,100017.81
2022-12-28T17:41:07.185Z,100024.59
2022-12-28T17:43:33.660Z,100020.16
2022-12-28T17:46:03.871Z,100022.97
2022-12-28T17:48:30.854Z,100017.38
2022-12-28T17:50:58.948Z,100019.34
2022-12-28T17:53:26.054Z,100007.78
2022-12-28T17:55:52.935Z,100019.75
2022-12-28T17:58:19.294Z,100013.72
2022-12-28T18:00:45.701Z,100006.53
2022-12-28T18:03:12.555Z,100014.91
2022-12-28T18:05:38.962Z,100004.50
2022-12-28T18:08:05.357Z,100006.50
2022-12-28T18:10:31.699Z,99994.06
2022-12-28T18:12:58.050Z,99998.06
2022-12-28T18:15:27.329Z,99997.63
2022-12-28T18:17:59.432Z,99994.41
2022-12-28T18:20:26.162Z,99996.00
2022-12-28T18:22:52.526Z,99985.63
2022-12-28T18:25:18.921Z,99979.59
2022-12-28T18:27:45.268Z,99979.16
2022-12-28T18:30:14.875Z,99970.34
2022-12-28T18:32:42.756Z,99975.91
2022-12-28T18:35:09.780Z,99960.31
2022-12-28T18:37:36.210Z,99960.69
2022-12-28T18:40:02.881Z,99954.69
2022-12-28T18:42:31.958Z,99956.66
2022-12-28T18:44:58.394Z,99963.00
2022-12-28T18:47:25.994Z,99946.66
2022-12-28T18:49:52.542Z,99939.44
2022-12-28T18:52:19.076Z,99933.44
2022-12-28T18:54:45.474Z,99922.66
2022-12-28T18:57:12.186Z,99909.84
2022-12-28T18:59:38.561Z,99911.03
2022-12-28T19:02:09.186Z,99910.63
2022-12-28T19:04:38.413Z,99921.78
2022-12-28T19:07:04.974Z,99905.03
2022-12-28T19:09:33.587Z,99903.06
2022-12-28T19:12:00.388Z,99906.22
2022-12-28T19:14:26.936Z,99895.88
2022-12-28T19:16:53.731Z,99899.81
2022-12-28T19:19:20.959Z,99892.63
2022-12-28T19:21:53.676Z,99887.06
2022-12-28T19:24:23.328Z,99867.91
2022-12-28T19:26:51.159Z,99874.66
2022-12-28T19:29:18.645Z,99885.84
2022-12-28T19:31:45.495Z,99876.66
2022-12-28T19:34:12.315Z,99865.50
2022-12-28T19:36:39.030Z,99866.66
2022-12-28T19:39:05.990Z,99858.28
2022-12-28T19:41:32.602Z,99853.09
2022-12-28T19:43:59.001Z,99845.91
2022-12-28T19:46:31.560Z,99842.31
2022-12-28T19:48:59.556Z,99843.09
2022-12-28T19:51:30.528Z,99841.13
2022-12-28T19:53:58.184Z,99841.13
2022-12-28T19:56:24.739Z,99841.13
2022-12-28T19:58:51.106Z,99834.34
2022-12-28T20:01:20.371Z,99826.78
2022-12-28T20:03:54.450Z,99825.16
2022-12-28T20:06:23.675Z,99833.16
2022-12-28T20:08:53.569Z,99819.19
2022-12-28T20:11:22.006Z,99817.22
2022-12-28T20:13:53.803Z,99830.38
2022-12-28T20:16:21.187Z,99818.03
2022-12-28T20:18:52.682Z,99816.41
2022-12-28T20:21:21.439Z,99820.84
2022-12-28T20:23:52.501Z,99815.66
2022-12-28T20:26:21.263Z,99806.91
2022-12-28T20:28:51.158Z,99807.69
2022-12-28T20:31:19.028Z,99804.09
2022-12-28T20:33:46.213Z,99801.75
2022-12-28T20:36:16.192Z,99798.97
2022-12-28T20:38:42.985Z,99777.44
2022-12-28T20:41:35.185Z,99785.81
2022-12-28T20:44:04.146Z,99784.63
2022-12-28T20:46:31.114Z,99789.44
2022-12-28T20:48:59.563Z,99780.69
2022-12-28T20:51:27.129Z,99761.19
2022-12-28T20:53:53.796Z,99761.19
2022-12-28T20:56:20.256Z,99756.44
2022-12-28T20:58:46.830Z,99743.28
2022-12-28T21:01:15.233Z,99776.00
2022-12-28T21:03:41.924Z,99760.50
2022-12-28T21:06:08.720Z,99767.72
2022-12-28T21:08:35.864Z,99781.34
2022-12-28T21:11:02.574Z,99750.22
2022-12-28T21:13:29.383Z,99754.25
2022-12-28T21:15:55.837Z,99768.63
2022-12-28T21:18:23.029Z,99779.84
2022-12-28T21:20:51.948Z,99774.66
2022-12-28T21:23:18.289Z,99745.97
2022-12-28T21:25:45.161Z,99761.97
2022-12-28T21:28:12.015Z,99758.38
2022-12-28T21:30:38.802Z,99752.41
2022-12-28T21:33:06.098Z,99768.41
2022-12-28T21:35:34.786Z,99762.06
2022-12-28T21:38:01.690Z,99752.13
2022-12-28T21:40:28.265Z,99756.16
2022-12-28T21:42:54.663Z,99752.97
2022-12-28T21:45:21.303Z,99743.81
2022-12-28T21:47:47.744Z,99764.97
2022-12-28T21:50:14.302Z,99748.63
2022-12-28T21:52:43.063Z,99761.81
2022-12-28T21:55:28.423Z,99757.84
2022-12-28T21:57:54.833Z,99754.69
2022-12-28T22:00:40.319Z,99755.47
2022-12-28T22:03:25.578Z,99739.50
2022-12-28T22:06:03.988Z,99740.69
2022-12-28T22:08:50.205Z,99743.09
2022-12-28T22:11:35.428Z,99730.31
2022-12-28T22:14:03.253Z,99725.91
2022-12-28T22:16:33.719Z,99726.69
2022-12-28T22:19:02.942Z,99722.28
2022-12-28T22:21:30.429Z,99715.91
2022-12-28T22:23:56.807Z,99723.06
2022-12-28T22:26:23.613Z,99709.09
2022-12-28T22:28:50.267Z,99711.09
2022-12-28T22:31:16.766Z,99710.66
2022-12-28T22:33:44.373Z,99702.28
2022-12-28T22:36:16.915Z,99699.47
2022-12-28T22:38:43.554Z,99700.66
2022-12-28T22:41:10.506Z,99692.28
2022-12-28T22:43:37.111Z,99693.88
2022-12-28T22:46:05.941Z,99699.47
2022-12-28T22:48:33.229Z,99688.28
2022-12-28T22:51:05.804Z,99692.72
2022-12-28T22:53:32.976Z,99691.13
2022-12-28T22:56:01.084Z,99691.56
2022-12-28T22:58:28.519Z,99676.38
2022-12-28T23:01:06.975Z,99668.75
2022-12-28T23:03:33.500Z,99674.78
2022-12-28T23:05:59.915Z,99667.25
2022-12-28T23:08:26.252Z,99680.41
2022-12-28T23:10:54.766Z,99672.44
2022-12-28T23:13:21.264Z,99680.00
2022-12-28T23:16:01.953Z,99678.38
2022-12-28T23:18:47.902Z,99681.22
2022-12-28T23:21:39.225Z,99681.22
2022-12-28T23:24:33.512Z,99685.59
2022-12-28T23:27:19.356Z,99681.28
2022-12-28T23:29:46.446Z,99681.69
2022-12-28T23:32:12.894Z,99684.91
2022-12-28T23:34:39.349Z,99675.72
2022-12-28T23:37:05.745Z,99668.13
2022-12-28T23:39:32.277Z,99662.97
2022-12-28T23:41:58.864Z,99657.78
2022-12-28T23:44:28.857Z,99660.16
2022-12-28T23:46:59.441Z,99659.00
2022-12-28T23:49:26.506Z,99649.00
2022-12-28T23:51:53.027Z,99644.66
2022-12-28T23:54:20.146Z,99635.06
2022-12-28T23:56:48.818Z,99637.44
2022-12-28T23:59:15.646Z,99635.88
